sensor_id;sensor_type;location;lat;lon;timestamp;P1;durP1;ratioP1;P2;durP2;ratioP2
75894;SDS011;64573;50.328;15.014;2023-08-17T00:00:18;19.15;;;13.05;;
75894;SDS011;64573;50.328;15.014;2023-08-17T00:05:09;15.65;;;11.50;;
75894;SDS011;64573;50.328;15.014;2023-08-17T00:07:35;16.92;;;12.52;;
75894;SDS011;64573;50.328;15.014;2023-08-17T00:10:00;17.17;;;12.02;;
75894;SDS011;64573;50.328;15.014;2023-08-17T00:12:26;17.52;;;12.40;;
75894;SDS011;64573;50.328;15.014;2023-08-17T00:14:52;17.55;;;12.88;;
75894;SDS011;64573;50.328;15.014;2023-08-17T00:17:18;17.30;;;12.48;;
75894;SDS011;64573;50.328;15.014;2023-08-17T00:19:43;18.88;;;13.30;;
75894;SDS011;64573;50.328;15.014;2023-08-17T00:22:09;17.67;;;11.75;;
75894;SDS011;64573;50.328;15.014;2023-08-17T00:24:34;19.52;;;11.10;;
75894;SDS011;64573;50.328;15.014;2023-08-17T00:26:59;15.90;;;11.55;;
75894;SDS011;64573;50.328;15.014;2023-08-17T00:29:25;16.48;;;10.95;;
75894;SDS011;64573;50.328;15.014;2023-08-17T00:31:50;14.13;;;10.45;;
75894;SDS011;64573;50.328;15.014;2023-08-17T00:34:16;16.48;;;10.95;;
75894;SDS011;64573;50.328;15.014;2023-08-17T00:36:41;16.25;;;10.40;;
75894;SDS011;64573;50.328;15.014;2023-08-17T00:39:06;17.10;;;10.10;;
75894;SDS011;64573;50.328;15.014;2023-08-17T00:41:32;16.63;;;10.73;;
75894;SDS011;64573;50.328;15.014;2023-08-17T00:43:57;16.05;;;9.43;;
75894;SDS011;64573;50.328;15.014;2023-08-17T00:46:22;13.88;;;10.50;;
75894;SDS011;64573;50.328;15.014;2023-08-17T00:48:49;14.30;;;10.45;;
75894;SDS011;64573;50.328;15.014;2023-08-17T00:51:14;15.23;;;11.00;;
75894;SDS011;64573;50.328;15.014;2023-08-17T00:53:40;16.00;;;10.38;;
75894;SDS011;64573;50.328;15.014;2023-08-17T00:56:06;15.55;;;10.27;;
75894;SDS011;64573;50.328;15.014;2023-08-17T00:58:33;13.55;;;9.93;;
75894;SDS011;64573;50.328;15.014;2023-08-17T01:00:59;15.13;;;10.63;;
75894;SDS011;64573;50.328;15.014;2023-08-17T01:03:24;16.80;;;12.43;;
75894;SDS011;64573;50.328;15.014;2023-08-17T01:05:53;18.17;;;11.65;;
75894;SDS011;64573;50.328;15.014;2023-08-17T01:08:19;15.45;;;11.13;;
75894;SDS011;64573;50.328;15.014;2023-08-17T01:13:18;18.55;;;12.63;;
75894;SDS011;64573;50.328;15.014;2023-08-17T01:15:52;20.73;;;13.10;;
75894;SDS011;64573;50.328;15.014;2023-08-17T01:18:32;22.15;;;15.48;;
75894;SDS011;64573;50.328;15.014;2023-08-17T01:20:58;20.63;;;14.02;;
75894;SDS011;64573;50.328;15.014;2023-08-17T01:23:26;18.63;;;13.18;;
75894;SDS011;64573;50.328;15.014;2023-08-17T01:25:51;20.02;;;13.10;;
75894;SDS011;64573;50.328;15.014;2023-08-17T01:28:18;19.45;;;12.75;;
75894;SDS011;64573;50.328;15.014;2023-08-17T01:30:45;18.67;;;12.45;;
75894;SDS011;64573;50.328;15.014;2023-08-17T01:33:18;17.77;;;12.10;;
75894;SDS011;64573;50.328;15.014;2023-08-17T01:36:04;18.65;;;12.40;;
75894;SDS011;64573;50.328;15.014;2023-08-17T01:38:36;15.82;;;11.70;;
75894;SDS011;64573;50.328;15.014;2023-08-17T01:41:03;17.00;;;11.68;;
75894;SDS011;64573;50.328;15.014;2023-08-17T01:43:29;20.52;;;12.80;;
75894;SDS011;64573;50.328;15.014;2023-08-17T01:45:55;20.77;;;12.52;;
75894;SDS011;64573;50.328;15.014;2023-08-17T01:48:20;19.40;;;12.95;;
75894;SDS011;64573;50.328;15.014;2023-08-17T01:50:46;20.15;;;13.32;;
75894;SDS011;64573;50.328;15.014;2023-08-17T01:53:11;21.60;;;14.73;;
75894;SDS011;64573;50.328;15.014;2023-08-17T01:55:37;19.92;;;12.88;;
75894;SDS011;64573;50.328;15.014;2023-08-17T01:58:02;17.60;;;12.55;;
75894;SDS011;64573;50.328;15.014;2023-08-17T02:00:28;16.88;;;12.65;;
75894;SDS011;64573;50.328;15.014;2023-08-17T02:02:53;14.20;;;11.63;;
75894;SDS011;64573;50.328;15.014;2023-08-17T02:05:18;15.55;;;11.43;;
75894;SDS011;64573;50.328;15.014;2023-08-17T02:07:44;16.48;;;10.43;;
75894;SDS011;64573;50.328;15.014;2023-08-17T02:10:09;12.50;;;8.85;;
75894;SDS011;64573;50.328;15.014;2023-08-17T02:12:34;15.23;;;8.80;;
75894;SDS011;64573;50.328;15.014;2023-08-17T02:15:00;12.65;;;8.70;;
75894;SDS011;64573;50.328;15.014;2023-08-17T02:17:25;15.27;;;10.80;;
75894;SDS011;64573;50.328;15.014;2023-08-17T02:19:50;12.60;;;10.45;;
75894;SDS011;64573;50.328;15.014;2023-08-17T02:22:15;18.90;;;11.27;;
75894;SDS011;64573;50.328;15.014;2023-08-17T02:24:41;13.02;;;9.70;;
75894;SDS011;64573;50.328;15.014;2023-08-17T02:27:07;14.63;;;9.82;;
75894;SDS011;64573;50.328;15.014;2023-08-17T02:29:34;15.05;;;10.73;;
75894;SDS011;64573;50.328;15.014;2023-08-17T02:31:59;17.35;;;10.85;;
75894;SDS011;64573;50.328;15.014;2023-08-17T02:34:24;14.93;;;11.00;;
75894;SDS011;64573;50.328;15.014;2023-08-17T02:36:50;17.92;;;10.95;;
75894;SDS011;64573;50.328;15.014;2023-08-17T02:39:15;14.50;;;11.30;;
75894;SDS011;64573;50.328;15.014;2023-08-17T02:41:40;21.88;;;13.27;;
75894;SDS011;64573;50.328;15.014;2023-08-17T02:44:06;17.77;;;12.38;;
75894;SDS011;64573;50.328;15.014;2023-08-17T02:46:31;17.17;;;11.98;;
75894;SDS011;64573;50.328;15.014;2023-08-17T02:48:56;19.55;;;11.68;;
75894;SDS011;64573;50.328;15.014;2023-08-17T02:51:22;21.90;;;12.45;;
75894;SDS011;64573;50.328;15.014;2023-08-17T02:53:47;15.88;;;10.85;;
75894;SDS011;64573;50.328;15.014;2023-08-17T02:56:12;17.40;;;11.38;;
75894;SDS011;64573;50.328;15.014;2023-08-17T02:58:38;16.33;;;10.40;;
75894;SDS011;64573;50.328;15.014;2023-08-17T03:01:05;24.45;;;11.70;;
75894;SDS011;64573;50.328;15.014;2023-08-17T03:03:31;17.15;;;10.68;;
75894;SDS011;64573;50.328;15.014;2023-08-17T03:05:57;15.25;;;10.38;;
75894;SDS011;64573;50.328;15.014;2023-08-17T03:08:22;15.98;;;10.20;;
75894;SDS011;64573;50.328;15.014;2023-08-17T03:10:47;14.43;;;9.65;;
75894;SDS011;64573;50.328;15.014;2023-08-17T03:13:13;13.13;;;9.35;;
75894;SDS011;64573;50.328;15.014;2023-08-17T03:15:38;14.98;;;9.90;;
75894;SDS011;64573;50.328;15.014;2023-08-17T03:18:05;14.68;;;9.73;;
75894;SDS011;64573;50.328;15.014;2023-08-17T03:20:30;13.70;;;9.23;;
75894;SDS011;64573;50.328;15.014;2023-08-17T03:22:56;17.88;;;10.20;;
75894;SDS011;64573;50.328;15.014;2023-08-17T03:25:21;13.70;;;10.00;;
75894;SDS011;64573;50.328;15.014;2023-08-17T03:27:46;15.35;;;10.45;;
75894;SDS011;64573;50.328;15.014;2023-08-17T03:30:12;14.43;;;10.50;;
75894;SDS011;64573;50.328;15.014;2023-08-17T03:32:37;19.38;;;10.90;;
75894;SDS011;64573;50.328;15.014;2023-08-17T03:35:03;15.18;;;10.15;;
75894;SDS011;64573;50.328;15.014;2023-08-17T03:37:28;14.63;;;10.77;;
75894;SDS011;64573;50.328;15.014;2023-08-17T03:39:54;14.65;;;10.20;;
75894;SDS011;64573;50.328;15.014;2023-08-17T03:42:19;14.25;;;10.45;;
75894;SDS011;64573;50.328;15.014;2023-08-17T03:44:45;16.30;;;11.13;;
75894;SDS011;64573;50.328;15.014;2023-08-17T03:47:10;14.88;;;10.70;;
75894;SDS011;64573;50.328;15.014;2023-08-17T03:49:36;16.88;;;10.60;;
75894;SDS011;64573;50.328;15.014;2023-08-17T03:52:01;15.13;;;9.85;;
75894;SDS011;64573;50.328;15.014;2023-08-17T03:54:27;12.10;;;9.77;;
75894;SDS011;64573;50.328;15.014;2023-08-17T03:56:52;16.85;;;10.43;;
75894;SDS011;64573;50.328;15.014;2023-08-17T03:59:18;23.23;;;10.40;;
75894;SDS011;64573;50.328;15.014;2023-08-17T04:01:43;14.25;;;10.13;;
75894;SDS011;64573;50.328;15.014;2023-08-17T04:04:09;15.48;;;10.57;;
75894;SDS011;64573;50.328;15.014;2023-08-17T04:09:07;17.67;;;11.98;;
75894;SDS011;64573;50.328;15.014;2023-08-17T04:11:34;17.48;;;11.38;;
75894;SDS011;64573;50.328;15.014;2023-08-17T04:14:00;19.52;;;13.95;;
75894;SDS011;64573;50.328;15.014;2023-08-17T04:16:26;19.77;;;13.98;;
75894;SDS011;64573;50.328;15.014;2023-08-17T04:18:51;22.42;;;13.48;;
75894;SDS011;64573;50.328;15.014;2023-08-17T04:21:16;19.33;;;12.98;;
75894;SDS011;64573;50.328;15.014;2023-08-17T04:23:41;18.17;;;12.20;;
75894;SDS011;64573;50.328;15.014;2023-08-17T04:26:07;15.48;;;11.00;;
75894;SDS011;64573;50.328;15.014;2023-08-17T04:28:32;19.67;;;11.45;;
75894;SDS011;64573;50.328;15.014;2023-08-17T04:30:57;15.60;;;11.75;;
75894;SDS011;64573;50.328;15.014;2023-08-17T04:33:23;21.05;;;11.50;;
75894;SDS011;64573;50.328;15.014;2023-08-17T04:35:48;17.60;;;11.32;;
75894;SDS011;64573;50.328;15.014;2023-08-17T04:38:13;18.48;;;10.30;;
75894;SDS011;64573;50.328;15.014;2023-08-17T04:40:39;16.25;;;11.07;;
75894;SDS011;64573;50.328;15.014;2023-08-17T04:43:04;15.32;;;10.45;;
75894;SDS011;64573;50.328;15.014;2023-08-17T04:45:30;16.90;;;10.80;;
75894;SDS011;64573;50.328;15.014;2023-08-17T04:47:55;14.57;;;10.25;;
75894;SDS011;64573;50.328;15.014;2023-08-17T04:50:20;13.32;;;9.70;;
75894;SDS011;64573;50.328;15.014;2023-08-17T04:52:46;14.85;;;8.75;;
75894;SDS011;64573;50.328;15.014;2023-08-17T04:55:12;18.48;;;8.43;;
75894;SDS011;64573;50.328;15.014;2023-08-17T04:57:38;9.00;;;7.47;;
75894;SDS011;64573;50.328;15.014;2023-08-17T05:00:04;10.48;;;7.75;;
75894;SDS011;64573;50.328;15.014;2023-08-17T05:02:33;10.45;;;7.45;;
75894;SDS011;64573;50.328;15.014;2023-08-17T05:04:59;9.30;;;7.10;;
75894;SDS011;64573;50.328;15.014;2023-08-17T05:07:24;7.75;;;6.75;;
75894;SDS011;64573;50.328;15.014;2023-08-17T05:09:50;7.05;;;6.15;;
75894;SDS011;64573;50.328;15.014;2023-08-17T05:12:15;7.40;;;6.22;;
75894;SDS011;64573;50.328;15.014;2023-08-17T05:27:36;6.45;;;5.47;;
75894;SDS011;64573;50.328;15.014;2023-08-17T05:40:18;7.38;;;4.63;;
75894;SDS011;64573;50.328;15.014;2023-08-17T05:42:44;9.13;;;5.10;;
75894;SDS011;64573;50.328;15.014;2023-08-17T05:45:09;6.32;;;5.10;;
75894;SDS011;64573;50.328;15.014;2023-08-17T05:52:41;7.97;;;4.97;;
75894;SDS011;64573;50.328;15.014;2023-08-17T05:55:06;8.38;;;5.40;;
75894;SDS011;64573;50.328;15.014;2023-08-17T06:07:53;5.95;;;5.03;;
75894;SDS011;64573;50.328;15.014;2023-08-17T06:10:18;8.25;;;4.82;;
75894;SDS011;64573;50.328;15.014;2023-08-17T06:12:45;6.57;;;4.78;;
75894;SDS011;64573;50.328;15.014;2023-08-17T06:15:10;8.77;;;5.05;;
75894;SDS011;64573;50.328;15.014;2023-08-17T06:17:36;7.15;;;5.30;;
75894;SDS011;64573;50.328;15.014;2023-08-17T06:20:01;6.45;;;4.65;;
75894;SDS011;64573;50.328;15.014;2023-08-17T06:22:28;8.68;;;5.55;;
75894;SDS011;64573;50.328;15.014;2023-08-17T06:24:53;11.98;;;5.68;;
75894;SDS011;64573;50.328;15.014;2023-08-17T06:27:19;6.35;;;4.55;;
75894;SDS011;64573;50.328;15.014;2023-08-17T06:29:44;10.35;;;6.70;;
75894;SDS011;64573;50.328;15.014;2023-08-17T06:37:20;6.80;;;6.00;;
75894;SDS011;64573;50.328;15.014;2023-08-17T06:39:45;11.35;;;6.18;;
75894;SDS011;64573;50.328;15.014;2023-08-17T06:42:10;7.72;;;6.15;;
75894;SDS011;64573;50.328;15.014;2023-08-17T06:44:35;7.30;;;5.50;;
75894;SDS011;64573;50.328;15.014;2023-08-17T06:47:01;11.60;;;6.65;;
75894;SDS011;64573;50.328;15.014;2023-08-17T06:49:26;7.70;;;4.82;;
75894;SDS011;64573;50.328;15.014;2023-08-17T06:51:52;9.32;;;5.38;;
75894;SDS011;64573;50.328;15.014;2023-08-17T06:54:18;8.57;;;5.53;;
75894;SDS011;64573;50.328;15.014;2023-08-17T06:56:43;12.32;;;6.40;;
75894;SDS011;64573;50.328;15.014;2023-08-17T06:59:08;7.68;;;5.53;;
75894;SDS011;64573;50.328;15.014;2023-08-17T08:58:34;6.18;;;4.75;;
75894;SDS011;64573;50.328;15.014;2023-08-17T10:47:38;7.47;;;5.20;;
75894;SDS011;64573;50.328;15.014;2023-08-17T10:50:20;7.22;;;5.43;;
75894;SDS011;64573;50.328;15.014;2023-08-17T10:55:37;7.15;;;5.68;;
75894;SDS011;64573;50.328;15.014;2023-08-17T10:58:05;9.45;;;6.43;;
75894;SDS011;64573;50.328;15.014;2023-08-17T11:00:36;7.68;;;6.43;;
75894;SDS011;64573;50.328;15.014;2023-08-17T11:05:51;6.93;;;5.65;;
75894;SDS011;64573;50.328;15.014;2023-08-17T11:13:32;7.88;;;6.75;;
75894;SDS011;64573;50.328;15.014;2023-08-17T11:15:58;10.45;;;6.55;;
75894;SDS011;64573;50.328;15.014;2023-08-17T11:18:24;7.57;;;6.35;;
75894;SDS011;64573;50.328;15.014;2023-08-17T11:20:50;7.13;;;6.43;;
75894;SDS011;64573;50.328;15.014;2023-08-17T11:23:16;7.05;;;6.07;;
75894;SDS011;64573;50.328;15.014;2023-08-17T11:25:41;9.65;;;6.00;;
75894;SDS011;64573;50.328;15.014;2023-08-17T11:30:43;8.15;;;6.03;;
75894;SDS011;64573;50.328;15.014;2023-08-17T11:35:43;9.38;;;5.90;;
75894;SDS011;64573;50.328;15.014;2023-08-17T11:38:09;10.23;;;5.78;;
75894;SDS011;64573;50.328;15.014;2023-08-17T11:40:34;7.53;;;5.25;;
75894;SDS011;64573;50.328;15.014;2023-08-17T11:45:36;6.93;;;5.45;;
75894;SDS011;64573;50.328;15.014;2023-08-17T11:48:01;7.57;;;6.07;;
75894;SDS011;64573;50.328;15.014;2023-08-17T11:50:26;9.05;;;5.72;;
75894;SDS011;64573;50.328;15.014;2023-08-17T11:52:52;5.95;;;4.88;;
75894;SDS011;64573;50.328;15.014;2023-08-17T11:55:17;9.70;;;5.38;;
75894;SDS011;64573;50.328;15.014;2023-08-17T11:57:43;7.05;;;4.97;;
75894;SDS011;64573;50.328;15.014;2023-08-17T12:00:09;7.85;;;5.15;;
75894;SDS011;64573;50.328;15.014;2023-08-17T12:05:10;6.20;;;5.30;;
75894;SDS011;64573;50.328;15.014;2023-08-17T12:07:36;9.60;;;5.53;;
75894;SDS011;64573;50.328;15.014;2023-08-17T12:10:02;6.10;;;5.40;;
75894;SDS011;64573;50.328;15.014;2023-08-17T12:12:29;9.88;;;6.07;;
75894;SDS011;64573;50.328;15.014;2023-08-17T12:14:54;7.25;;;5.53;;
75894;SDS011;64573;50.328;15.014;2023-08-17T12:17:20;8.32;;;5.50;;
75894;SDS011;64573;50.328;15.014;2023-08-17T12:19:49;6.00;;;5.40;;
75894;SDS011;64573;50.328;15.014;2023-08-17T12:22:16;6.07;;;5.00;;
75894;SDS011;64573;50.328;15.014;2023-08-17T12:24:42;7.65;;;5.35;;
75894;SDS011;64573;50.328;15.014;2023-08-17T12:27:08;10.85;;;5.45;;
75894;SDS011;64573;50.328;15.014;2023-08-17T12:29:45;9.15;;;5.10;;
75894;SDS011;64573;50.328;15.014;2023-08-17T12:42:22;8.07;;;5.27;;
75894;SDS011;64573;50.328;15.014;2023-08-17T12:44:48;7.03;;;4.82;;
75894;SDS011;64573;50.328;15.014;2023-08-17T12:47:14;7.22;;;5.22;;
75894;SDS011;64573;50.328;15.014;2023-08-17T12:49:39;7.93;;;5.40;;
75894;SDS011;64573;50.328;15.014;2023-08-17T12:52:04;7.25;;;5.72;;
75894;SDS011;64573;50.328;15.014;2023-08-17T12:54:30;7.35;;;5.40;;
75894;SDS011;64573;50.328;15.014;2023-08-17T12:56:55;7.30;;;5.40;;
75894;SDS011;64573;50.328;15.014;2023-08-17T12:59:21;7.93;;;5.38;;
75894;SDS011;64573;50.328;15.014;2023-08-17T13:01:46;6.80;;;5.28;;
75894;SDS011;64573;50.328;15.014;2023-08-17T13:04:11;7.90;;;5.35;;
75894;SDS011;64573;50.328;15.014;2023-08-17T13:06:37;9.43;;;6.13;;
75894;SDS011;64573;50.328;15.014;2023-08-17T13:11:38;8.07;;;4.60;;
75894;SDS011;64573;50.328;15.014;2023-08-17T13:14:03;6.10;;;4.90;;
75894;SDS011;64573;50.328;15.014;2023-08-17T13:16:28;13.35;;;5.38;;
75894;SDS011;64573;50.328;15.014;2023-08-17T13:21:29;6.88;;;5.13;;
75894;SDS011;64573;50.328;15.014;2023-08-17T13:23:54;10.65;;;5.07;;
75894;SDS011;64573;50.328;15.014;2023-08-17T13:26:21;6.25;;;4.40;;
75894;SDS011;64573;50.328;15.014;2023-08-17T13:28:47;5.00;;;4.35;;
75894;SDS011;64573;50.328;15.014;2023-08-17T13:31:12;4.80;;;4.00;;
75894;SDS011;64573;50.328;15.014;2023-08-17T13:33:38;4.82;;;3.60;;
75894;SDS011;64573;50.328;15.014;2023-08-17T13:36:03;5.70;;;3.70;;
75894;SDS011;64573;50.328;15.014;2023-08-17T13:46:14;8.70;;;4.45;;
75894;SDS011;64573;50.328;15.014;2023-08-17T14:14:31;7.07;;;3.58;;
75894;SDS011;64573;50.328;15.014;2023-08-17T14:19:26;4.90;;;3.40;;
75894;SDS011;64573;50.328;15.014;2023-08-17T14:37:23;4.95;;;3.20;;
75894;SDS011;64573;50.328;15.014;2023-08-17T14:39:48;5.40;;;2.90;;
75894;SDS011;64573;50.328;15.014;2023-08-17T14:42:13;4.93;;;3.22;;
75894;SDS011;64573;50.328;15.014;2023-08-17T14:44:38;4.60;;;3.13;;
75894;SDS011;64573;50.328;15.014;2023-08-17T14:54:49;6.03;;;3.20;;
75894;SDS011;64573;50.328;15.014;2023-08-17T14:57:15;4.03;;;2.90;;
75894;SDS011;64573;50.328;15.014;2023-08-17T14:59:40;4.13;;;2.88;;
75894;SDS011;64573;50.328;15.014;2023-08-17T15:02:06;4.30;;;2.60;;
75894;SDS011;64573;50.328;15.014;2023-08-17T15:07:04;3.65;;;2.90;;
75894;SDS011;64573;50.328;15.014;2023-08-17T15:12:02;5.78;;;3.30;;
75894;SDS011;64573;50.328;15.014;2023-08-17T15:14:28;8.57;;;3.25;;
75894;SDS011;64573;50.328;15.014;2023-08-17T15:19:21;6.18;;;3.40;;
75894;SDS011;64573;50.328;15.014;2023-08-17T15:21:47;6.60;;;3.25;;
75894;SDS011;64573;50.328;15.014;2023-08-17T15:24:13;4.30;;;3.25;;
75894;SDS011;64573;50.328;15.014;2023-08-17T15:31:49;4.45;;;3.55;;
75894;SDS011;64573;50.328;15.014;2023-08-17T15:44:19;5.57;;;3.58;;
75894;SDS011;64573;50.328;15.014;2023-08-17T15:46:44;6.93;;;3.40;;
75894;SDS011;64573;50.328;15.014;2023-08-17T15:49:10;6.35;;;3.50;;
75894;SDS011;64573;50.328;15.014;2023-08-17T15:51:37;5.55;;;4.15;;
75894;SDS011;64573;50.328;15.014;2023-08-17T15:54:02;4.30;;;3.20;;
75894;SDS011;64573;50.328;15.014;2023-08-17T15:56:28;4.53;;;3.55;;
75894;SDS011;64573;50.328;15.014;2023-08-17T15:58:53;4.50;;;3.13;;
75894;SDS011;64573;50.328;15.014;2023-08-17T16:01:19;4.47;;;3.40;;
75894;SDS011;64573;50.328;15.014;2023-08-17T16:06:19;4.68;;;3.53;;
75894;SDS011;64573;50.328;15.014;2023-08-17T16:08:45;3.70;;;3.28;;
75894;SDS011;64573;50.328;15.014;2023-08-17T16:11:10;4.47;;;3.40;;
75894;SDS011;64573;50.328;15.014;2023-08-17T16:13:37;5.82;;;3.50;;
75894;SDS011;64573;50.328;15.014;2023-08-17T16:16:03;6.88;;;3.70;;
75894;SDS011;64573;50.328;15.014;2023-08-17T16:18:28;4.20;;;3.65;;
75894;SDS011;64573;50.328;15.014;2023-08-17T16:20:54;8.63;;;3.78;;
75894;SDS011;64573;50.328;15.014;2023-08-17T16:23:19;4.05;;;3.42;;
75894;SDS011;64573;50.328;15.014;2023-08-17T16:25:45;4.07;;;3.60;;
75894;SDS011;64573;50.328;15.014;2023-08-17T16:28:10;5.13;;;4.03;;
75894;SDS011;64573;50.328;15.014;2023-08-17T16:30:35;5.30;;;3.45;;
75894;SDS011;64573;50.328;15.014;2023-08-17T16:33:02;5.00;;;3.60;;
75894;SDS011;64573;50.328;15.014;2023-08-17T16:35:29;4.72;;;3.75;;
75894;SDS011;64573;50.328;15.014;2023-08-17T16:40:30;6.05;;;3.80;;
75894;SDS011;64573;50.328;15.014;2023-08-17T16:42:55;7.07;;;4.03;;
75894;SDS011;64573;50.328;15.014;2023-08-17T16:45:20;7.50;;;4.10;;
75894;SDS011;64573;50.328;15.014;2023-08-17T16:47:46;5.13;;;3.80;;
75894;SDS011;64573;50.328;15.014;2023-08-17T16:50:11;7.75;;;3.83;;
75894;SDS011;64573;50.328;15.014;2023-08-17T16:55:05;8.52;;;3.80;;
75894;SDS011;64573;50.328;15.014;2023-08-17T16:57:31;5.95;;;3.80;;
75894;SDS011;64573;50.328;15.014;2023-08-17T16:59:57;4.85;;;3.42;;
75894;SDS011;64573;50.328;15.014;2023-08-17T17:02:23;6.25;;;3.53;;
75894;SDS011;64573;50.328;15.014;2023-08-17T17:04:49;5.10;;;3.65;;
75894;SDS011;64573;50.328;15.014;2023-08-17T17:07:14;4.10;;;3.42;;
75894;SDS011;64573;50.328;15.014;2023-08-17T17:09:40;4.32;;;2.97;;
75894;SDS011;64573;50.328;15.014;2023-08-17T17:12:06;5.63;;;3.58;;
75894;SDS011;64573;50.328;15.014;2023-08-17T17:14:31;6.18;;;2.90;;
75894;SDS011;64573;50.328;15.014;2023-08-17T17:16:57;4.63;;;3.38;;
75894;SDS011;64573;50.328;15.014;2023-08-17T17:19:22;4.05;;;3.42;;
75894;SDS011;64573;50.328;15.014;2023-08-17T17:21:48;5.47;;;3.80;;
75894;SDS011;64573;50.328;15.014;2023-08-17T17:24:13;5.65;;;4.07;;
75894;SDS011;64573;50.328;15.014;2023-08-17T17:26:39;6.03;;;4.15;;
75894;SDS011;64573;50.328;15.014;2023-08-17T17:29:05;4.78;;;4.03;;
75894;SDS011;64573;50.328;15.014;2023-08-17T17:31:32;6.28;;;3.85;;
75894;SDS011;64573;50.328;15.014;2023-08-17T17:33:57;5.88;;;3.83;;
75894;SDS011;64573;50.328;15.014;2023-08-17T17:36:23;7.18;;;4.90;;
75894;SDS011;64573;50.328;15.014;2023-08-17T17:38:48;5.60;;;3.72;;
75894;SDS011;64573;50.328;15.014;2023-08-17T17:41:13;10.32;;;3.90;;
75894;SDS011;64573;50.328;15.014;2023-08-17T17:43:39;5.90;;;3.60;;
75894;SDS011;64573;50.328;15.014;2023-08-17T17:46:05;5.68;;;3.25;;
75894;SDS011;64573;50.328;15.014;2023-08-17T17:48:30;4.55;;;3.50;;
75894;SDS011;64573;50.328;15.014;2023-08-17T17:50:57;5.45;;;3.50;;
75894;SDS011;64573;50.328;15.014;2023-08-17T17:53:23;8.35;;;3.70;;
75894;SDS011;64573;50.328;15.014;2023-08-17T17:55:48;5.15;;;3.33;;
75894;SDS011;64573;50.328;15.014;2023-08-17T17:58:13;4.80;;;3.15;;
75894;SDS011;64573;50.328;15.014;2023-08-17T18:00:39;4.40;;;3.30;;
75894;SDS011;64573;50.328;15.014;2023-08-17T18:03:09;4.18;;;3.05;;
75894;SDS011;64573;50.328;15.014;2023-08-17T18:05:36;7.55;;;3.60;;
75894;SDS011;64573;50.328;15.014;2023-08-17T18:08:02;3.90;;;3.17;;
75894;SDS011;64573;50.328;15.014;2023-08-17T18:10:27;6.45;;;3.50;;
75894;SDS011;64573;50.328;15.014;2023-08-17T18:12:53;6.88;;;3.60;;
75894;SDS011;64573;50.328;15.014;2023-08-17T18:15:18;5.80;;;3.50;;
75894;SDS011;64573;50.328;15.014;2023-08-17T18:17:43;6.00;;;3.50;;
75894;SDS011;64573;50.328;15.014;2023-08-17T18:20:10;5.07;;;3.65;;
75894;SDS011;64573;50.328;15.014;2023-08-17T18:22:37;4.13;;;3.42;;
75894;SDS011;64573;50.328;15.014;2023-08-17T18:25:04;4.75;;;3.63;;
75894;SDS011;64573;50.328;15.014;2023-08-17T18:27:30;5.07;;;3.88;;
75894;SDS011;64573;50.328;15.014;2023-08-17T18:29:55;7.55;;;3.72;;
75894;SDS011;64573;50.328;15.014;2023-08-17T18:32:21;10.65;;;3.90;;
75894;SDS011;64573;50.328;15.014;2023-08-17T18:34:46;4.70;;;3.80;;
75894;SDS011;64573;50.328;15.014;2023-08-17T18:37:11;4.68;;;3.58;;
75894;SDS011;64573;50.328;15.014;2023-08-17T18:39:37;4.28;;;3.42;;
75894;SDS011;64573;50.328;15.014;2023-08-17T18:42:03;6.22;;;3.95;;
75894;SDS011;64573;50.328;15.014;2023-08-17T18:44:28;4.30;;;3.90;;
75894;SDS011;64573;50.328;15.014;2023-08-17T18:46:54;4.88;;;3.83;;
75894;SDS011;64573;50.328;15.014;2023-08-17T18:49:19;6.30;;;3.72;;
75894;SDS011;64573;50.328;15.014;2023-08-17T18:51:44;5.60;;;3.60;;
75894;SDS011;64573;50.328;15.014;2023-08-17T18:54:10;6.38;;;4.22;;
75894;SDS011;64573;50.328;15.014;2023-08-17T18:56:35;6.63;;;4.22;;
75894;SDS011;64573;50.328;15.014;2023-08-17T18:59:00;6.28;;;4.55;;
75894;SDS011;64573;50.328;15.014;2023-08-17T19:01:29;5.15;;;4.13;;
75894;SDS011;64573;50.328;15.014;2023-08-17T19:03:54;5.07;;;3.85;;
75894;SDS011;64573;50.328;15.014;2023-08-17T19:06:19;7.97;;;4.47;;
75894;SDS011;64573;50.328;15.014;2023-08-17T19:08:45;5.70;;;4.28;;
75894;SDS011;64573;50.328;15.014;2023-08-17T19:11:10;6.07;;;4.80;;
75894;SDS011;64573;50.328;15.014;2023-08-17T19:13:35;5.53;;;4.90;;
75894;SDS011;64573;50.328;15.014;2023-08-17T19:16:01;7.15;;;4.95;;
75894;SDS011;64573;50.328;15.014;2023-08-17T19:18:27;15.07;;;5.85;;
75894;SDS011;64573;50.328;15.014;2023-08-17T19:20:53;6.60;;;4.70;;
75894;SDS011;64573;50.328;15.014;2023-08-17T19:23:18;8.02;;;5.63;;
75894;SDS011;64573;50.328;15.014;2023-08-17T19:25:44;8.57;;;6.22;;
75894;SDS011;64573;50.328;15.014;2023-08-17T19:28:10;7.72;;;5.75;;
75894;SDS011;64573;50.328;15.014;2023-08-17T19:30:35;6.40;;;5.68;;
75894;SDS011;64573;50.328;15.014;2023-08-17T19:33:00;7.43;;;5.72;;
75894;SDS011;64573;50.328;15.014;2023-08-17T19:35:26;5.32;;;4.55;;
75894;SDS011;64573;50.328;15.014;2023-08-17T19:37:52;8.32;;;5.18;;
75894;SDS011;64573;50.328;15.014;2023-08-17T19:40:19;5.80;;;4.50;;
75894;SDS011;64573;50.328;15.014;2023-08-17T19:42:45;6.97;;;4.95;;
75894;SDS011;64573;50.328;15.014;2023-08-17T19:45:10;8.60;;;4.68;;
75894;SDS011;64573;50.328;15.014;2023-08-17T19:47:36;9.25;;;4.68;;
75894;SDS011;64573;50.328;15.014;2023-08-17T19:52:36;6.65;;;5.03;;
75894;SDS011;64573;50.328;15.014;2023-08-17T19:55:01;7.38;;;4.95;;
75894;SDS011;64573;50.328;15.014;2023-08-17T19:57:28;7.22;;;5.00;;
75894;SDS011;64573;50.328;15.014;2023-08-17T19:59:54;9.77;;;4.50;;
75894;SDS011;64573;50.328;15.014;2023-08-17T20:02:19;6.68;;;5.20;;
75894;SDS011;64573;50.328;15.014;2023-08-17T20:04:45;6.47;;;4.72;;
75894;SDS011;64573;50.328;15.014;2023-08-17T20:07:10;5.50;;;4.53;;
75894;SDS011;64573;50.328;15.014;2023-08-17T20:09:35;7.82;;;4.38;;
75894;SDS011;64573;50.328;15.014;2023-08-17T20:12:01;6.25;;;4.40;;
75894;SDS011;64573;50.328;15.014;2023-08-17T20:14:27;7.88;;;4.45;;
75894;SDS011;64573;50.328;15.014;2023-08-17T20:16:52;5.78;;;4.10;;
75894;SDS011;64573;50.328;15.014;2023-08-17T20:19:17;4.13;;;3.67;;
75894;SDS011;64573;50.328;15.014;2023-08-17T20:21:42;5.90;;;4.00;;
75894;SDS011;64573;50.328;15.014;2023-08-17T20:24:09;6.10;;;3.83;;
75894;SDS011;64573;50.328;15.014;2023-08-17T20:26:34;6.40;;;4.35;;
75894;SDS011;64573;50.328;15.014;2023-08-17T20:29:00;3.97;;;3.58;;
75894;SDS011;64573;50.328;15.014;2023-08-17T20:31:25;4.78;;;4.03;;
75894;SDS011;64573;50.328;15.014;2023-08-17T20:33:51;8.52;;;4.60;;
75894;SDS011;64573;50.328;15.014;2023-08-17T20:36:17;5.88;;;3.75;;
75894;SDS011;64573;50.328;15.014;2023-08-17T20:38:42;6.30;;;4.50;;
75894;SDS011;64573;50.328;15.014;2023-08-17T20:41:08;6.60;;;4.82;;
75894;SDS011;64573;50.328;15.014;2023-08-17T20:43:33;6.53;;;4.15;;
75894;SDS011;64573;50.328;15.014;2023-08-17T20:45:59;5.80;;;4.47;;
75894;SDS011;64573;50.328;15.014;2023-08-17T20:48:24;9.05;;;4.43;;
75894;SDS011;64573;50.328;15.014;2023-08-17T20:53:19;7.20;;;5.05;;
75894;SDS011;64573;50.328;15.014;2023-08-17T20:55:44;9.07;;;4.80;;
75894;SDS011;64573;50.328;15.014;2023-08-17T20:58:09;7.60;;;4.70;;
75894;SDS011;64573;50.328;15.014;2023-08-17T21:00:35;6.15;;;4.63;;
75894;SDS011;64573;50.328;15.014;2023-08-17T21:03:03;7.63;;;4.60;;